createdAt,value
2018-09-04T00:00:57.460Z,6.77
2018-09-04T00:03:25.957Z,6.33
2018-09-04T00:05:54.459Z,6.30
2018-09-04T00:08:23.017Z,4.80
2018-09-04T00:10:51.531Z,5.33
2018-09-04T00:13:20.409Z,6.27
2018-09-04T00:15:48.901Z,4.90
2018-09-04T00:18:17.465Z,4.97
2018-09-04T00:20:45.941Z,6.03
2018-09-04T00:23:14.508Z,6.57
2018-09-04T00:25:43.002Z,5.70
2018-09-04T00:28:11.471Z,5.37
2018-09-04T00:30:40.013Z,5.40
2018-09-04T00:33:08.554Z,7.77
2018-09-04T00:35:37.108Z,5.30
2018-09-04T00:38:05.615Z,6.70
2018-09-04T00:40:34.078Z,5.40
2018-09-04T00:43:02.575Z,6.07
2018-09-04T00:45:31.087Z,6.80
2018-09-04T00:47:59.599Z,6.57
2018-09-04T00:50:28.092Z,6.70
2018-09-04T00:52:56.593Z,4.93
2018-09-04T00:55:25.811Z,5.40
2018-09-04T00:57:54.330Z,7.80
2018-09-04T01:00:25.165Z,6.20
2018-09-04T01:02:54.418Z,6.27
2018-09-04T01:05:22.894Z,5.97
2018-09-04T01:07:51.518Z,7.10
2018-09-04T01:10:20.269Z,5.57
2018-09-04T01:12:49.781Z,4.53
2018-09-04T01:15:18.266Z,6.30
2018-09-04T01:17:46.906Z,5.57
2018-09-04T01:20:15.641Z,5.27
2018-09-04T01:22:44.198Z,5.67
2018-09-04T01:25:12.629Z,5.70
2018-09-04T01:27:41.193Z,6.17
2018-09-04T01:30:09.723Z,5.00
2018-09-04T01:32:38.281Z,6.40
2018-09-04T01:35:06.748Z,5.27
2018-09-04T01:37:35.235Z,5.80
2018-09-04T01:40:03.734Z,4.87
2018-09-04T01:42:32.237Z,5.37
2018-09-04T01:45:00.770Z,4.67
2018-09-04T01:47:29.263Z,6.83
2018-09-04T01:49:57.833Z,5.33
2018-09-04T01:52:26.310Z,5.40
2018-09-04T01:54:54.957Z,8.03
2018-09-04T01:57:24.217Z,5.20
2018-09-04T01:59:52.700Z,5.20
2018-09-04T02:02:21.142Z,6.60
2018-09-04T02:04:49.679Z,7.07
2018-09-04T02:07:18.267Z,7.20
2018-09-04T02:09:46.757Z,6.33
2018-09-04T02:12:15.229Z,7.47
2018-09-04T02:14:43.763Z,5.10
2018-09-04T02:17:12.278Z,6.33
2018-09-04T02:19:40.806Z,8.03
2018-09-04T02:22:09.326Z,5.77
2018-09-04T02:24:37.797Z,7.53
2018-09-04T02:27:12.205Z,7.73
2018-09-04T02:29:41.356Z,7.00
2018-09-04T02:32:09.848Z,7.37
2018-09-04T02:34:38.369Z,7.30
2018-09-04T02:37:06.934Z,7.83
2018-09-04T02:39:35.423Z,7.00
2018-09-04T02:42:03.963Z,5.73
2018-09-04T02:44:32.476Z,6.07
2018-09-04T02:47:01.022Z,7.70
2018-09-04T02:49:29.527Z,7.07
2018-09-04T02:51:58.021Z,5.90
2018-09-04T02:54:26.518Z,6.40
2018-09-04T02:56:55.041Z,6.63
2018-09-04T02:59:23.505Z,6.23
2018-09-04T03:01:52.080Z,6.93
2018-09-04T03:04:20.628Z,7.37
2018-09-04T03:06:49.138Z,8.17
2018-09-04T03:09:17.651Z,6.93
2018-09-04T03:11:46.105Z,7.30
2018-09-04T03:14:15.312Z,5.00
2018-09-04T03:16:43.795Z,8.10
2018-09-04T03:19:12.269Z,7.30
2018-09-04T03:21:40.773Z,8.07
2018-09-04T03:24:09.511Z,8.07
2018-09-04T03:26:38.220Z,7.23
2018-09-04T03:29:06.644Z,6.13
2018-09-04T03:31:35.150Z,6.60
2018-09-04T03:34:03.618Z,6.67
2018-09-04T03:36:32.191Z,7.63
2018-09-04T03:39:00.690Z,7.33
2018-09-04T03:41:29.221Z,6.90
2018-09-04T03:43:57.746Z,7.90
2018-09-04T03:46:26.233Z,7.20
2018-09-04T03:48:54.786Z,7.53
2018-09-04T03:51:23.322Z,7.43
2018-09-04T03:53:51.814Z,6.80
2018-09-04T03:56:20.263Z,9.03
2018-09-04T03:58:48.774Z,7.80
2018-09-04T04:01:17.292Z,8.07
2018-09-04T04:03:45.823Z,6.40
2018-09-04T04:06:14.304Z,7.00
2018-09-04T04:08:42.826Z,5.97
2018-09-04T04:11:11.264Z,6.17
2018-09-04T04:13:39.772Z,6.83
2018-09-04T04:16:08.297Z,6.60
2018-09-04T04:18:36.768Z,5.17
2018-09-04T04:21:05.352Z,6.00
2018-09-04T04:23:33.853Z,7.57
2018-09-04T04:26:03.330Z,5.50
2018-09-04T04:28:31.784Z,7.63
2018-09-04T04:31:00.344Z,6.33
2018-09-04T04:33:28.841Z,5.77
2018-09-04T04:35:58.418Z,5.17
2018-09-04T04:38:27.011Z,6.00
2018-09-04T04:40:55.535Z,8.17
2018-09-04T04:43:24.127Z,6.63
2018-09-04T04:45:52.729Z,7.17
2018-09-04T04:48:21.309Z,6.07
2018-09-04T04:50:49.797Z,5.70
2018-09-04T04:53:18.253Z,5.97
2018-09-04T04:55:46.779Z,6.70
2018-09-04T04:58:15.237Z,5.07
2018-09-04T05:00:43.711Z,5.90
2018-09-04T05:03:12.226Z,7.10
2018-09-04T05:05:41.709Z,5.40
2018-09-04T05:08:10.209Z,6.03
2018-09-04T05:10:38.763Z,5.90
2018-09-04T05:13:07.240Z,7.20
2018-09-04T05:15:35.731Z,5.93
2018-09-04T05:18:06.373Z,5.50
2018-09-04T05:20:34.980Z,6.70
2018-09-04T05:23:03.490Z,7.00
2018-09-04T05:25:31.957Z,5.57
2018-09-04T05:28:00.459Z,7.43
2018-09-04T05:30:28.987Z,6.43
2018-09-04T05:34:02.331Z,6.10
2018-09-04T05:36:30.843Z,6.77
2018-09-04T05:38:59.374Z,6.37
2018-09-04T05:41:27.898Z,7.30
2018-09-04T05:43:58.316Z,7.53
2018-09-04T05:46:32.284Z,9.13
2018-09-04T05:49:01.335Z,6.83
2018-09-04T05:51:29.798Z,6.77
2018-09-04T05:53:58.465Z,7.90
2018-09-04T05:56:26.996Z,5.73
2018-09-04T05:58:55.477Z,8.53
2018-09-04T06:01:24.086Z,6.90
2018-09-04T06:03:53.141Z,7.40
2018-09-04T06:06:22.401Z,5.97
2018-09-04T06:08:50.923Z,6.80
2018-09-04T06:11:19.437Z,6.20
2018-09-04T06:13:48.197Z,7.57
2018-09-04T06:16:16.804Z,6.47
2018-09-04T06:18:45.250Z,5.83
2018-09-04T06:21:13.746Z,5.23
2018-09-04T06:23:42.275Z,5.03
2018-09-04T06:26:10.784Z,5.87
2018-09-04T06:28:39.267Z,7.43
2018-09-04T06:31:07.854Z,5.90
2018-09-04T06:33:36.689Z,5.67
2018-09-04T06:36:12.780Z,6.50
2018-09-04T06:38:41.317Z,6.17
2018-09-04T06:41:09.882Z,4.90
2018-09-04T06:43:38.404Z,4.53
2018-09-04T06:46:06.972Z,5.57
2018-09-04T06:48:35.967Z,4.70
2018-09-04T06:51:04.484Z,6.07
2018-09-04T06:53:33.001Z,5.47
2018-09-04T06:56:01.470Z,5.80
2018-09-04T06:58:30.009Z,5.20
2018-09-04T07:00:58.582Z,5.17
2018-09-04T07:03:27.054Z,5.60
2018-09-04T07:05:55.606Z,4.63
2018-09-04T07:08:25.563Z,5.13
2018-09-04T07:10:54.101Z,4.70
2018-09-04T07:13:22.735Z,5.60
2018-09-04T07:15:51.240Z,5.40
2018-09-04T07:18:19.695Z,4.87
2018-09-04T07:20:48.206Z,5.50
2018-09-04T07:23:16.803Z,6.10
2018-09-04T07:25:45.279Z,4.60
2018-09-04T07:28:13.698Z,4.20
2018-09-04T07:30:42.213Z,5.40
2018-09-04T07:33:10.808Z,5.60
2018-09-04T07:35:39.591Z,4.50
2018-09-04T07:38:08.059Z,5.30
2018-09-04T07:40:36.534Z,5.30
2018-09-04T07:43:05.185Z,5.50
2018-09-04T07:45:33.749Z,5.50
2018-09-04T07:48:02.269Z,5.50
2018-09-04T07:50:30.721Z,6.63
2018-09-04T07:52:59.216Z,6.10
2018-09-04T07:55:27.689Z,6.53
2018-09-04T07:57:56.235Z,5.90
2018-09-04T08:00:24.672Z,3.83
2018-09-04T08:02:53.153Z,4.47
2018-09-04T08:05:21.684Z,4.97
2018-09-04T08:07:50.271Z,5.17
2018-09-04T08:10:18.779Z,4.40
2018-09-04T08:12:47.323Z,4.47
2018-09-04T08:15:15.862Z,4.30
2018-09-04T08:17:44.450Z,4.07
2018-09-04T08:20:12.945Z,4.20
2018-09-04T08:22:41.418Z,3.97
2018-09-04T08:25:09.915Z,3.03
2018-09-04T08:27:38.483Z,3.40
2018-09-04T08:30:07.121Z,4.00
2018-09-04T08:32:35.641Z,3.50
2018-09-04T08:35:04.141Z,3.90
2018-09-04T08:37:32.654Z,5.70
2018-09-04T08:40:01.239Z,6.40
2018-09-04T08:42:29.730Z,5.70
2018-09-04T08:44:58.244Z,3.90
2018-09-04T08:47:27.059Z,3.53
2018-09-04T08:49:55.522Z,3.37
2018-09-04T08:52:23.994Z,3.40
2018-09-04T08:54:52.544Z,3.63
2018-09-04T08:57:21.082Z,2.70
2018-09-04T08:59:49.514Z,3.00
2018-09-04T09:02:18.048Z,2.97
2018-09-04T09:04:46.561Z,2.83
2018-09-04T09:07:15.054Z,2.63
2018-09-04T09:09:43.596Z,2.57
2018-09-04T09:12:12.307Z,3.30
2018-09-04T09:14:40.838Z,3.07
2018-09-04T09:17:09.390Z,2.67
2018-09-04T09:19:37.837Z,2.70
2018-09-04T09:22:06.342Z,3.80
2018-09-04T09:24:34.838Z,2.93
2018-09-04T09:27:11.705Z,3.03
2018-09-04T09:29:40.370Z,2.40
2018-09-04T09:32:08.855Z,3.10
2018-09-04T09:34:37.368Z,3.47
2018-09-04T09:37:05.976Z,3.30
2018-09-04T09:39:34.431Z,2.77
2018-09-04T09:42:02.991Z,2.80
2018-09-04T09:44:31.522Z,2.80
2018-09-04T09:47:02.589Z,2.90
2018-09-04T09:49:32.487Z,3.00
2018-09-04T09:52:01.018Z,3.63
2018-09-04T09:54:29.660Z,3.20
2018-09-04T09:56:58.731Z,3.97
2018-09-04T09:59:27.274Z,3.17
2018-09-04T10:02:01.075Z,3.60
2018-09-04T10:04:29.602Z,3.70
2018-09-04T10:06:58.124Z,4.00
2018-09-04T10:09:26.742Z,4.50
2018-09-04T10:11:55.437Z,3.43
2018-09-04T10:14:24.086Z,4.00
2018-09-04T10:16:52.970Z,3.53
2018-09-04T10:19:21.472Z,3.13
2018-09-04T10:21:49.953Z,4.13
2018-09-04T10:24:19.065Z,4.03
2018-09-04T10:26:47.617Z,3.30
2018-09-04T10:29:16.077Z,4.00
2018-09-04T10:31:44.580Z,3.40
2018-09-04T10:34:15.153Z,3.73
2018-09-04T10:36:44.670Z,4.60
2018-09-04T10:39:18.424Z,4.73
2018-09-04T10:41:47.000Z,4.90
2018-09-04T10:44:15.513Z,4.57
2018-09-04T10:46:44.054Z,4.23
2018-09-04T10:49:12.519Z,5.60
2018-09-04T10:51:42.156Z,3.73
2018-09-04T10:54:14.592Z,3.33
2018-09-04T10:56:43.327Z,4.20
2018-09-04T10:59:12.090Z,4.47
2018-09-04T11:01:40.593Z,3.80
2018-09-04T11:04:09.153Z,4.30
2018-09-04T11:06:38.074Z,5.00
2018-09-04T11:09:14.786Z,4.27
2018-09-04T11:11:43.268Z,3.83
2018-09-04T11:14:11.778Z,7.37
2018-09-04T11:16:40.294Z,4.47
2018-09-04T11:19:08.897Z,5.57
2018-09-04T11:21:37.459Z,4.57
2018-09-04T11:24:06.251Z,4.33
2018-09-04T11:26:34.766Z,5.23
2018-09-04T11:29:05.656Z,4.87
2018-09-04T11:31:34.230Z,5.03
2018-09-04T11:34:03.160Z,5.77
2018-09-04T11:36:31.703Z,4.70
2018-09-04T11:39:00.258Z,5.20
2018-09-04T11:41:28.711Z,4.83
2018-09-04T11:43:57.276Z,5.10
2018-09-04T11:46:25.773Z,5.50
2018-09-04T11:48:54.567Z,5.43
2018-09-04T11:51:23.075Z,4.80
2018-09-04T11:53:51.540Z,5.40
2018-09-04T11:56:20.346Z,5.80
2018-09-04T11:58:49.274Z,5.60
2018-09-04T12:01:19.989Z,5.10
2018-09-04T12:03:48.439Z,7.60
2018-09-04T12:06:16.998Z,5.43
2018-09-04T12:08:45.573Z,7.67
2018-09-04T12:11:14.054Z,5.17
2018-09-04T12:13:42.798Z,6.23
2018-09-04T12:16:11.451Z,5.80
2018-09-04T12:18:40.142Z,6.47
2018-09-04T12:21:10.076Z,5.47
2018-09-04T12:23:39.063Z,5.00
2018-09-04T12:26:09.171Z,5.73
2018-09-04T12:28:37.723Z,5.50
2018-09-04T12:31:07.000Z,6.00
2018-09-04T12:33:35.493Z,4.93
2018-09-04T12:36:07.866Z,6.47
2018-09-04T12:38:39.257Z,5.73
2018-09-04T12:41:13.103Z,5.80
2018-09-04T12:43:41.684Z,5.50
2018-09-04T12:46:10.268Z,6.03
2018-09-04T12:48:39.013Z,6.43
2018-09-04T12:51:07.468Z,5.27
2018-09-04T12:53:36.191Z,7.17
2018-09-04T12:56:04.715Z,5.90
2018-09-04T12:58:33.222Z,5.40
2018-09-04T13:01:01.694Z,5.40
2018-09-04T13:03:30.175Z,5.03
2018-09-04T13:05:58.862Z,6.40
2018-09-04T13:08:29.592Z,5.33
2018-09-04T13:10:58.143Z,4.57
2018-09-04T13:13:26.936Z,5.17
2018-09-04T13:15:57.262Z,5.00
2018-09-04T13:18:26.853Z,5.60
2018-09-04T13:21:02.093Z,5.40
2018-09-04T13:23:31.638Z,6.17
2018-09-04T13:26:00.178Z,6.00
2018-09-04T13:28:29.288Z,5.93
2018-09-04T13:30:58.033Z,5.57
2018-09-04T13:33:26.537Z,6.77
2018-09-04T13:35:55.050Z,5.47
2018-09-04T13:38:23.720Z,5.47
2018-09-04T13:40:57.399Z,5.87
2018-09-04T13:43:25.896Z,5.60
2018-09-04T13:45:54.610Z,6.23
2018-09-04T13:48:28.847Z,6.03
2018-09-04T13:50:58.052Z,5.70
2018-09-04T13:53:27.390Z,4.90
2018-09-04T13:55:56.784Z,6.90
2018-09-04T13:58:25.572Z,6.90
2018-09-04T14:00:54.325Z,5.57
2018-09-04T14:03:22.911Z,5.60
2018-09-04T14:05:52.220Z,5.57
2018-09-04T14:08:20.848Z,5.77
2018-09-04T14:10:49.525Z,6.20
2018-09-04T14:13:18.088Z,7.37
2018-09-04T14:15:46.678Z,6.60
2018-09-04T14:18:16.716Z,6.90
2018-09-04T14:20:45.303Z,6.57
2018-09-04T14:23:13.833Z,6.33
2018-09-04T14:25:42.758Z,6.03
2018-09-04T14:28:11.374Z,6.47
2018-09-04T14:30:39.926Z,6.20
2018-09-04T14:33:08.469Z,6.57
2018-09-04T14:35:37.030Z,5.97
2018-09-04T14:38:05.561Z,6.00
2018-09-04T14:40:34.066Z,6.60
2018-09-04T14:43:02.510Z,6.60
2018-09-04T14:45:31.064Z,6.50
2018-09-04T14:47:59.763Z,6.47
2018-09-04T14:50:28.267Z,5.70
2018-09-04T14:52:56.791Z,6.77
2018-09-04T14:55:25.518Z,7.60
2018-09-04T14:57:53.996Z,5.53
2018-09-04T15:00:23.210Z,4.80
2018-09-04T15:02:52.009Z,5.47
2018-09-04T15:05:21.603Z,5.43
2018-09-04T15:07:50.112Z,5.70
2018-09-04T15:10:18.670Z,6.50
2018-09-04T15:12:47.302Z,4.80
2018-09-04T15:15:15.839Z,5.00
2018-09-04T15:17:44.312Z,5.07
2018-09-04T15:20:12.873Z,4.80
2018-09-04T15:22:41.354Z,5.20
2018-09-04T15:25:09.909Z,6.43
2018-09-04T15:27:38.398Z,6.10
2018-09-04T15:30:07.186Z,5.70
2018-09-04T15:32:35.927Z,6.17
2018-09-04T15:35:04.526Z,6.10
2018-09-04T15:37:33.216Z,5.97
2018-09-04T15:40:01.758Z,5.70
2018-09-04T15:42:30.440Z,6.53
2018-09-04T15:44:58.937Z,6.10
2018-09-04T15:47:27.464Z,5.70
2018-09-04T15:49:56.096Z,6.53
2018-09-04T15:52:24.681Z,5.77
2018-09-04T15:54:53.353Z,6.70
2018-09-04T15:57:21.959Z,5.80
2018-09-04T15:59:50.755Z,6.27
2018-09-04T16:02:19.222Z,6.10
2018-09-04T16:04:47.774Z,5.43
2018-09-04T16:07:16.419Z,6.27
2018-09-04T16:09:45.045Z,7.00
2018-09-04T16:12:13.635Z,6.33
2018-09-04T16:14:42.124Z,5.77
2018-09-04T16:17:10.674Z,7.07
2018-09-04T16:19:39.216Z,5.80
2018-09-04T16:22:07.740Z,6.10
2018-09-04T16:24:36.317Z,5.63
2018-09-04T16:27:12.517Z,6.10
2018-09-04T16:29:41.062Z,5.10
2018-09-04T16:32:09.668Z,5.73
2018-09-04T16:34:38.294Z,5.23
2018-09-04T16:37:06.801Z,5.47
2018-09-04T16:39:35.371Z,5.60
2018-09-04T16:42:04.083Z,5.80
2018-09-04T16:44:32.573Z,5.70
2018-09-04T16:47:01.241Z,6.87
2018-09-04T16:49:29.746Z,4.90
2018-09-04T16:51:59.384Z,5.87
2018-09-04T16:54:28.454Z,6.13
2018-09-04T16:56:57.203Z,6.90
2018-09-04T16:59:25.663Z,5.20
2018-09-04T17:01:54.469Z,4.77
2018-09-04T17:04:23.054Z,5.73
2018-09-04T17:06:51.538Z,5.07
2018-09-04T17:09:20.553Z,5.87
2018-09-04T17:11:49.184Z,4.87
2018-09-04T17:14:17.710Z,5.70
2018-09-04T17:16:46.350Z,5.70
2018-09-04T17:19:14.966Z,5.73
2018-09-04T17:21:43.503Z,5.83
2018-09-04T17:24:12.022Z,6.07
2018-09-04T17:26:40.489Z,6.40
2018-09-04T17:29:09.623Z,6.00
2018-09-04T17:31:39.202Z,5.77
2018-09-04T17:34:07.765Z,6.10
2018-09-04T17:36:36.465Z,5.40
2018-09-04T17:39:06.751Z,5.90
2018-09-04T17:41:35.349Z,6.40
2018-09-04T17:44:03.935Z,6.80
2018-09-04T17:46:33.429Z,6.57
2018-09-04T17:49:02.004Z,6.73
2018-09-04T17:51:30.705Z,5.40
2018-09-04T17:53:59.232Z,6.00
2018-09-04T17:56:27.752Z,6.03
2018-09-04T17:58:59.221Z,6.27
2018-09-04T18:01:27.777Z,5.40
2018-09-04T18:03:56.310Z,5.77
2018-09-04T18:06:24.872Z,5.80
2018-09-04T18:08:53.757Z,7.13
2018-09-04T18:11:22.392Z,5.93
2018-09-04T18:13:51.614Z,5.23
2018-09-04T18:16:20.163Z,5.90
2018-09-04T18:18:48.649Z,5.77
2018-09-04T18:21:17.312Z,5.80
2018-09-04T18:23:45.874Z,6.67
2018-09-04T18:26:14.372Z,5.00
2018-09-04T18:28:42.885Z,5.53
2018-09-04T18:31:11.570Z,5.00
2018-09-04T18:33:40.080Z,5.20
2018-09-04T18:36:14.006Z,6.33
2018-09-04T18:38:42.666Z,5.23
2018-09-04T18:41:11.234Z,5.00
2018-09-04T18:43:39.758Z,5.40
2018-09-04T18:46:08.309Z,5.90
2018-09-04T18:48:36.899Z,6.73
2018-09-04T18:51:05.529Z,5.50
2018-09-04T18:53:34.178Z,6.37
2018-09-04T18:56:02.735Z,4.70
2018-09-04T18:58:31.434Z,6.17
2018-09-04T19:00:59.971Z,5.60
2018-09-04T19:03:28.497Z,5.97
2018-09-04T19:05:57.072Z,6.33
2018-09-04T19:08:26.158Z,6.27
2018-09-04T19:10:54.815Z,6.17
2018-09-04T19:13:23.269Z,5.80
2018-09-04T19:15:51.796Z,5.50
2018-09-04T19:18:20.362Z,5.60
2018-09-04T19:20:48.903Z,6.30
2018-09-04T19:23:18.031Z,5.73
2018-09-04T19:25:47.441Z,5.97
2018-09-04T19:28:15.983Z,6.20
2018-09-04T19:30:44.418Z,5.30
2018-09-04T19:33:13.005Z,5.87
2018-09-04T19:35:41.566Z,6.40
2018-09-04T19:38:10.808Z,6.23
2018-09-04T19:40:39.406Z,6.13
2018-09-04T19:43:07.922Z,6.20
2018-09-04T19:45:36.845Z,4.83
2018-09-04T19:48:05.544Z,5.60
2018-09-04T19:50:34.171Z,6.77
2018-09-04T19:53:02.950Z,6.00
2018-09-04T19:55:31.479Z,6.37
2018-09-04T19:58:00.009Z,6.10
2018-09-04T20:00:28.527Z,6.50
2018-09-04T20:02:57.106Z,5.77
2018-09-04T20:05:25.684Z,5.63
2018-09-04T20:07:54.194Z,5.73
2018-09-04T20:10:22.716Z,6.60
2018-09-04T20:12:51.263Z,6.40
2018-09-04T20:15:19.777Z,7.67
2018-09-04T20:17:48.376Z,6.50
2018-09-04T20:20:16.916Z,6.80
2018-09-04T20:22:45.462Z,8.53
2018-09-04T20:25:14.017Z,5.87
2018-09-04T20:27:42.481Z,6.10
2018-09-04T20:30:11.038Z,6.90
2018-09-04T20:32:39.537Z,6.87
2018-09-04T20:35:08.130Z,5.87
2018-09-04T20:37:36.709Z,6.27
2018-09-04T20:40:05.362Z,7.80
2018-09-04T20:42:35.023Z,7.20
2018-09-04T20:45:04.830Z,5.80
2018-09-04T20:47:33.368Z,5.87
2018-09-04T20:50:01.936Z,6.70
2018-09-04T20:52:30.472Z,5.10
2018-09-04T20:54:59.054Z,6.00
2018-09-04T20:57:39.903Z,6.60
2018-09-04T21:00:22.663Z,7.37
2018-09-04T21:03:02.293Z,5.93
2018-09-04T21:05:41.813Z,5.93
2018-09-04T21:08:17.107Z,6.30
2018-09-04T21:10:46.323Z,5.50
2018-09-04T21:13:15.285Z,6.90
2018-09-04T21:15:43.786Z,6.50
2018-09-04T21:18:12.931Z,6.87
2018-09-04T21:20:41.402Z,6.50
2018-09-04T21:23:09.950Z,6.73
2018-09-04T21:25:38.549Z,6.47
2018-09-04T21:28:13.574Z,7.13
2018-09-04T21:30:42.103Z,5.83
2018-09-04T21:33:10.769Z,5.83
2018-09-04T21:35:39.380Z,6.20
2018-09-04T21:38:07.943Z,7.00
2018-09-04T21:40:36.502Z,7.03
2018-09-04T21:43:05.188Z,5.90
2018-09-04T21:45:33.649Z,5.80
2018-09-04T21:48:02.148Z,5.70
2018-09-04T21:50:30.639Z,5.67
2018-09-04T21:52:59.169Z,6.60
2018-09-04T21:55:27.707Z,5.00
2018-09-04T21:57:56.223Z,5.60
2018-09-04T22:00:26.361Z,7.70
2018-09-04T22:02:56.058Z,6.23
2018-09-04T22:05:25.197Z,7.10
2018-09-04T22:07:54.505Z,5.43
2018-09-04T22:10:23.086Z,5.77
2018-09-04T22:12:51.625Z,6.90
2018-09-04T22:15:20.129Z,5.67
2018-09-04T22:17:48.801Z,6.50
2018-09-04T22:20:17.242Z,6.43
2018-09-04T22:22:45.676Z,6.23
2018-09-04T22:25:14.206Z,5.23
2018-09-04T22:27:42.716Z,5.80
2018-09-04T22:30:11.286Z,6.70
2018-09-04T22:32:40.029Z,6.63
2018-09-04T22:35:08.544Z,7.77
2018-09-04T22:37:37.079Z,5.90
2018-09-04T22:40:06.042Z,6.23
2018-09-04T22:42:34.563Z,6.70
2018-09-04T22:45:03.717Z,6.20
2018-09-04T22:47:33.029Z,6.97
2018-09-04T22:50:06.876Z,5.80
2018-09-04T22:52:35.322Z,6.60
2018-09-04T22:55:06.712Z,5.93
2018-09-04T22:57:35.293Z,5.27
2018-09-04T23:00:05.291Z,5.20
2018-09-04T23:02:33.930Z,5.77
2018-09-04T23:05:02.887Z,5.03
2018-09-04T23:07:31.426Z,6.77
2018-09-04T23:09:59.956Z,6.57
2018-09-04T23:12:28.462Z,7.67
2018-09-04T23:14:57.018Z,5.87
2018-09-04T23:17:25.521Z,6.53
2018-09-04T23:19:53.985Z,7.93
2018-09-04T23:22:22.456Z,7.40
2018-09-04T23:24:51.019Z,5.50
2018-09-04T23:27:19.530Z,6.57
2018-09-04T23:29:48.078Z,6.00
2018-09-04T23:32:16.565Z,6.13
2018-09-04T23:34:45.042Z,6.67
2018-09-04T23:37:13.551Z,6.40
2018-09-04T23:39:42.087Z,6.80
2018-09-04T23:42:10.542Z,6.40
2018-09-04T23:44:39.024Z,6.97
2018-09-04T23:47:07.481Z,7.60
2018-09-04T23:49:35.991Z,7.70
2018-09-04T23:52:04.528Z,7.20
2018-09-04T23:54:33.063Z,6.00
2018-09-04T23:57:01.603Z,7.83
2018-09-04T23:59:30.140Z,7.43
